Time;durP1;ratioP1;P1;durP2;ratioP2;P2;SDS_P1;SDS_P2;PMS_P1;PMS_P2;Temp;Humidity;BMP_temperature;BMP_pressure;BME280_temperature;BME280_humidity;BME280_pressure;Samples;Min_cycle;Max_cycle;Signal;HPM_P1;HPM_P2
2022/12/01 00:01:22;;;;;;;21.17;10.80;;;;;;;3.28;100.00;93124.00;5092065;28;20104;-71
2022/12/01 00:03:50;;;;;;;4.03;2.65;;;;;;;2.88;100.00;93117.16;5092522;28;20048;-70
2022/12/01 00:06:18;;;;;;;3.90;2.55;;;;;;;2.75;100.00;93125.31;5092339;28;20048;-71
2022/12/01 00:11:27;;;;;;;4.05;2.50;;;;;;;2.69;100.00;93112.50;5091993;28;20052;-71
2022/12/01 00:13:54;;;;;;;5.00;3.00;;;;;;;2.61;100.00;93110.78;5091569;28;20043;-71
2022/12/01 00:16:21;;;;;;;4.97;2.88;;;;;;;2.70;100.00;93107.25;5092531;28;20044;-72
2022/12/01 00:18:51;;;;;;;7.20;4.32;;;;;;;2.72;100.00;93104.56;5091860;28;20454;-71
2022/12/01 00:21:20;;;;;;;10.73;7.93;;;;;;;2.54;100.00;93103.00;5092510;28;20047;-71
2022/12/01 00:23:48;;;;;;;10.60;6.70;;;;;;;2.30;100.00;93116.56;5092306;28;20044;-71
2022/12/01 00:26:15;;;;;;;10.00;6.70;;;;;;;2.39;100.00;93101.16;5091929;28;20040;-70
2022/12/01 00:28:42;;;;;;;11.20;7.82;;;;;;;2.58;100.00;93106.81;5091368;28;20056;-70
2022/12/01 00:31:09;;;;;;;13.88;9.98;;;;;;;2.70;100.00;93106.47;5092049;28;20036;-70
2022/12/01 00:33:36;;;;;;;14.20;9.18;;;;;;;2.75;100.00;93099.16;5091477;28;20098;-70
2022/12/01 00:36:05;;;;;;;12.20;8.25;;;;;;;2.80;100.00;93114.69;5091956;28;20113;-71
2022/12/01 00:38:32;;;;;;;11.65;7.72;;;;;;;2.87;100.00;93112.28;5091728;28;20458;-70
2022/12/01 00:40:59;;;;;;;7.40;5.50;;;;;;;2.80;100.00;93110.41;5091932;28;20082;-70
2022/12/01 00:43:25;;;;;;;14.98;11.93;;;;;;;2.84;100.00;93108.31;5091648;28;20097;-71
2022/12/01 00:45:52;;;;;;;8.57;6.10;;;;;;;2.76;100.00;93078.72;5091997;28;20446;-70
2022/12/01 00:48:19;;;;;;;9.00;6.88;;;;;;;2.95;100.00;93104.63;5091770;28;20462;-70
2022/12/01 00:50:45;;;;;;;8.18;6.40;;;;;;;2.98;100.00;93109.38;5091655;28;20052;-71
2022/12/01 00:53:14;;;;;;;8.95;5.60;;;;;;;2.78;100.00;93079.31;5091366;28;20126;-70
2022/12/01 00:55:40;;;;;;;8.85;6.40;;;;;;;2.86;100.00;93103.88;5091213;28;20097;-70
2022/12/01 00:58:07;;;;;;;10.15;7.38;;;;;;;2.98;100.00;93106.03;5091609;28;20044;-71
2022/12/01 01:00:37;;;;;;;14.90;11.98;;;;;;;3.04;100.00;93102.84;5090808;28;20044;-70
2022/12/01 01:03:04;;;;;;;30.52;16.83;;;;;;;3.11;100.00;93113.13;5090686;28;20590;-71
2022/12/01 01:05:31;;;;;;;20.80;11.82;;;;;;;3.14;100.00;93120.41;5090330;28;20052;-71
2022/12/01 01:07:57;;;;;;;14.80;9.48;;;;;;;3.12;100.00;93114.69;5090293;28;20052;-71
2022/12/01 01:10:25;;;;;;;11.10;7.38;;;;;;;3.06;100.00;93108.56;5087542;28;20102;-71
2022/12/01 01:12:52;;;;;;;13.73;8.38;;;;;;;3.07;100.00;93115.97;5072914;28;20048;-72
2022/12/01 01:15:19;;;;;;;13.38;7.97;;;;;;;3.14;100.00;93112.81;5078999;28;20048;-72
2022/12/01 01:17:45;;;;;;;12.55;7.50;;;;;;;3.17;100.00;93113.25;5090205;28;20044;-71
2022/12/01 01:20:13;;;;;;;24.27;13.05;;;;;;;3.17;100.00;93100.56;5090477;28;20416;-71
2022/12/01 01:22:40;;;;;;;13.57;7.85;;;;;;;3.14;100.00;93089.97;5090128;28;20090;-71
2022/12/01 01:25:07;;;;;;;12.00;7.38;;;;;;;3.19;100.00;93098.66;5090183;28;20561;-71
2022/12/01 01:27:35;;;;;;;40.38;18.75;;;;;;;3.23;100.00;93099.09;5090412;28;20679;-72
2022/12/01 01:30:02;;;;;;;23.08;12.50;;;;;;;3.18;100.00;93101.34;5090227;28;20048;-72
2022/12/01 01:32:29;;;;;;;42.80;18.70;;;;;;;3.25;100.00;93094.66;5090140;28;20044;-73
2022/12/01 01:34:55;;;;;;;14.70;8.50;;;;;;;3.31;100.00;93099.06;5090231;28;20446;-73
2022/12/01 01:37:22;;;;;;;25.52;12.63;;;;;;;3.36;100.00;93098.56;5090282;28;21573;-72
2022/12/01 01:39:49;;;;;;;58.47;24.50;;;;;;;3.37;100.00;93091.75;5089969;28;20075;-73
2022/12/01 01:42:20;;;;;;;42.90;20.25;;;;;;;3.38;100.00;93091.56;5089753;28;20515;-73
2022/12/01 01:44:51;;;;;;;5.32;2.80;;;;;;;3.32;100.00;93095.56;5090116;28;20051;-72
2022/12/01 01:47:22;;;;;;;3.65;1.55;;;;;;;3.28;100.00;93079.09;5089973;28;20051;-73
2022/12/01 01:49:49;;;;;;;2.50;1.67;;;;;;;3.26;100.00;93081.00;5090079;28;20117;-72
2022/12/01 01:52:17;;;;;;;206.98;65.05;;;;;;;3.14;100.00;93057.75;5089584;28;20143;-73
2022/12/01 01:54:47;;;;;;;26.00;11.02;;;;;;;3.20;100.00;93072.31;5089905;28;20059;-73
2022/12/01 01:57:20;;;;;;;184.25;60.65;;;;;;;3.28;100.00;93071.47;5089433;28;20097;-72
2022/12/01 01:59:54;;;;;;;312.80;105.40;;;;;;;3.32;100.00;93075.25;5089881;28;20458;-72
2022/12/01 02:02:21;;;;;;;30.88;12.50;;;;;;;3.37;100.00;93072.19;5089901;28;20044;-72
2022/12/01 02:04:54;;;;;;;21.38;9.75;;;;;;;3.37;100.00;93071.44;5089971;28;20052;-72
2022/12/01 02:07:21;;;;;;;18.55;10.10;;;;;;;3.40;100.00;93071.06;5089830;28;20131;-69
2022/12/01 02:09:48;;;;;;;8.70;6.65;;;;;;;3.20;100.00;93084.22;5089382;28;20051;-71
2022/12/01 02:12:28;;;;;;;36.50;15.00;;;;;;;3.26;100.00;93068.31;5089555;28;20113;-72
2022/12/01 02:15:12;;;;;;;25.48;10.82;;;;;;;3.29;100.00;93074.81;5089254;28;20491;-71
2022/12/01 02:17:48;;;;;;;32.25;13.88;;;;;;;3.31;100.00;93075.41;5088539;28;20754;-72
2022/12/01 02:20:46;;;;;;;35.55;15.48;;;;;;;3.28;100.00;93083.38;5089476;28;20105;-71
2022/12/01 02:23:48;;;;;;;97.07;33.78;;;;;;;3.31;100.00;93067.81;5089565;28;20117;-72
2022/12/01 02:26:33;;;;;;;45.15;18.52;;;;;;;3.37;100.00;93073.97;5044236;28;20040;-72
2022/12/01 02:29:22;;;;;;;25.60;11.95;;;;;;;3.39;100.00;93067.75;5089457;28;20055;-71
2022/12/01 02:31:55;;;;;;;7.60;4.72;;;;;;;3.45;100.00;93072.16;5089517;28;20075;-71
2022/12/01 02:34:29;;;;;;;7.82;5.22;;;;;;;3.42;100.00;93075.03;5090139;28;20044;-71
2022/12/01 02:37:00;;;;;;;7.15;4.78;;;;;;;3.48;100.00;93071.03;5089767;28;20097;-71
2022/12/01 02:39:31;;;;;;;8.57;5.10;;;;;;;3.42;100.00;93077.56;5090020;28;20043;-70
2022/12/01 02:42:05;;;;;;;8.45;5.57;;;;;;;3.42;100.00;93056.47;5089667;28;20048;-70
2022/12/01 02:44:35;;;;;;;7.25;4.50;;;;;;;3.41;100.00;93059.94;5089547;28;20676;-71
2022/12/01 02:47:10;;;;;;;12.40;8.40;;;;;;;3.47;100.00;93067.69;5089529;28;20491;-71
2022/12/01 02:49:43;;;;;;;8.73;5.70;;;;;;;3.50;100.00;93063.22;5089738;28;20052;-71
2022/12/01 02:52:11;;;;;;;7.38;4.47;;;;;;;3.53;100.00;93065.44;5093499;28;20048;-71
2022/12/01 02:54:39;;;;;;;6.95;4.70;;;;;;;3.53;100.00;93061.16;5094137;28;20056;-71
2022/12/01 02:57:06;;;;;;;7.30;4.32;;;;;;;3.53;100.00;93060.34;5093556;28;20082;-71
2022/12/01 02:59:32;;;;;;;38.63;20.25;;;;;;;3.56;100.00;93065.13;5093974;28;20563;-71
2022/12/01 03:02:12;;;;;;;40.60;21.95;;;;;;;3.55;100.00;93054.16;5094028;28;20105;-72
2022/12/01 03:04:55;;;;;;;18.73;10.95;;;;;;;3.62;100.00;93059.34;5093541;28;20165;-72
2022/12/01 03:07:50;;;;;;;27.95;17.92;;;;;;;3.53;100.00;93045.13;5093683;28;20056;-72
2022/12/01 03:10:24;;;;;;;8.68;6.95;;;;;;;3.60;100.00;93062.06;5091059;28;20052;-72
2022/12/01 03:13:06;;;;;;;10.55;5.63;;;;;;;3.11;100.00;93042.88;5093986;28;20043;-71
2022/12/01 03:15:38;;;;;;;11.13;6.70;;;;;;;2.80;100.00;93048.72;5093383;28;20052;-71
2022/12/01 03:18:17;;;;;;;13.75;9.25;;;;;;;2.99;100.00;93036.56;5093390;28;20094;-70
2022/12/01 03:20:50;;;;;;;41.55;25.95;;;;;;;3.10;100.00;93032.88;5093362;28;20449;-70
2022/12/01 03:23:22;;;;;;;11.55;7.32;;;;;;;3.21;100.00;93032.50;5093082;28;20048;-70
2022/12/01 03:25:54;;;;;;;7.55;5.38;;;;;;;3.27;100.00;93033.53;5093298;28;20048;-70
2022/12/01 03:28:27;;;;;;;8.43;5.57;;;;;;;3.35;100.00;93036.03;5093195;28;20051;-70
2022/12/01 03:30:57;;;;;;;12.27;7.93;;;;;;;3.45;100.00;93021.38;5093024;28;20056;-71
2022/12/01 03:33:32;;;;;;;66.72;45.50;;;;;;;3.51;100.00;93021.66;5093367;28;20056;-70
2022/12/01 03:36:03;;;;;;;10.60;6.97;;;;;;;3.49;100.00;93016.75;5093176;28;20113;-71
2022/12/01 03:38:30;;;;;;;13.15;8.88;;;;;;;3.56;100.00;93014.31;5092943;28;20093;-71
2022/12/01 03:41:02;;;;;;;18.23;11.05;;;;;;;3.60;100.00;93031.56;5092625;28;20044;-71
2022/12/01 03:43:32;;;;;;;10.98;5.78;;;;;;;3.65;100.00;93037.91;5093112;28;20048;-71
2022/12/01 03:46:03;;;;;;;12.50;7.63;;;;;;;3.68;100.00;93033.25;5092754;28;20074;-71
2022/12/01 03:48:31;;;;;;;12.13;6.55;;;;;;;3.71;100.00;93040.53;5092964;28;20105;-71
2022/12/01 03:51:08;;;;;;;13.40;7.50;;;;;;;3.74;100.00;93036.84;5092848;28;20113;-71
2022/12/01 03:53:45;;;;;;;9.38;4.72;;;;;;;3.76;100.00;93024.78;5092253;28;20454;-71
2022/12/01 03:56:14;;;;;;;10.98;5.65;;;;;;;3.80;100.00;93035.38;5092852;28;20048;-71
2022/12/01 03:58:45;;;;;;;8.50;4.95;;;;;;;3.79;100.00;93037.13;5092393;28;20054;-70
2022/12/01 04:01:12;;;;;;;8.27;4.72;;;;;;;3.83;100.00;93042.66;5092719;28;20082;-71
2022/12/01 04:03:40;;;;;;;8.00;4.20;;;;;;;3.79;100.00;93028.72;5092650;28;20164;-71
2022/12/01 04:06:07;;;;;;;7.15;4.47;;;;;;;3.75;100.00;93040.97;5092459;28;20094;-72
2022/12/01 04:08:36;;;;;;;10.48;5.10;;;;;;;3.60;100.00;93035.84;5092075;28;20056;-70
2022/12/01 04:12:28;;;;;;;12.38;4.57;;;;;;;3.39;100.00;93028.88;5092210;28;20480;-71
2022/12/01 04:13:48;;;;;;;7.57;5.63;;;;;;;3.44;100.00;93024.06;5092019;28;20050;-70
2022/12/01 04:16:15;;;;;;;8.45;6.43;;;;;;;3.51;100.00;93019.13;5092377;28;20048;-70
2022/12/01 04:18:43;;;;;;;8.00;5.47;;;;;;;3.56;100.00;93030.31;5092365;28;20097;-71
2022/12/01 04:21:10;;;;;;;9.30;5.97;;;;;;;3.53;100.00;93001.94;5091964;28;20052;-71
2022/12/01 04:26:21;;;;;;;7.13;4.32;;;;;;;3.71;100.00;93027.81;5092009;28;20077;-70
2022/12/01 04:28:48;;;;;;;8.70;4.72;;;;;;;3.77;100.00;93025.56;5091961;28;20047;-70
2022/12/01 04:31:14;;;;;;;10.70;5.82;;;;;;;3.81;100.00;93034.41;5091708;28;20048;-70
2022/12/01 04:33:43;;;;;;;9.90;5.38;;;;;;;3.79;100.00;93023.66;5092056;28;20369;-70
2022/12/01 04:36:10;;;;;;;11.00;7.03;;;;;;;3.86;100.00;93043.13;5092055;28;20092;-70
2022/12/01 04:38:37;;;;;;;10.93;6.35;;;;;;;3.91;100.00;93032.44;5091379;28;20044;-70
2022/12/01 04:41:08;;;;;;;12.65;7.72;;;;;;;3.94;100.00;93032.06;5091570;28;20133;-70
2022/12/01 04:43:35;;;;;;;14.25;8.40;;;;;;;4.03;100.00;93037.09;5091460;28;20105;-70
2022/12/01 04:46:02;;;;;;;16.88;10.20;;;;;;;4.01;100.00;93042.34;5091982;28;20052;-70
2022/12/01 04:48:29;;;;;;;20.92;11.43;;;;;;;4.02;100.00;93028.66;5077772;28;20052;-71
2022/12/01 04:50:57;;;;;;;18.73;9.65;;;;;;;4.02;100.00;93028.66;5091364;28;20503;-70
2022/12/01 04:53:24;;;;;;;25.50;12.93;;;;;;;4.05;100.00;93030.06;5091538;28;20080;-70
2022/12/01 04:55:50;;;;;;;114.93;55.83;;;;;;;4.06;100.00;93034.97;5091326;28;20097;-70
2022/12/01 04:58:17;;;;;;;55.38;28.70;;;;;;;4.07;100.00;93030.69;5091188;28;20044;-70
2022/12/01 05:00:44;;;;;;;23.35;13.63;;;;;;;4.08;100.00;93027.19;5091521;28;20048;-71
2022/12/01 05:03:10;;;;;;;27.63;16.67;;;;;;;4.06;100.00;93039.25;5091337;28;20466;-70
2022/12/01 05:05:37;;;;;;;16.45;10.70;;;;;;;4.04;100.00;93031.03;5091046;28;20040;-70
2022/12/01 05:08:05;;;;;;;15.57;10.45;;;;;;;4.02;100.00;93041.38;5091172;28;20117;-70
2022/12/01 05:10:34;;;;;;;19.23;9.20;;;;;;;3.99;100.00;93036.66;5091335;28;20389;-70
2022/12/01 05:13:01;;;;;;;17.20;9.50;;;;;;;4.01;100.00;93034.72;5090682;28;20462;-70
2022/12/01 05:15:28;;;;;;;20.70;10.35;;;;;;;4.06;100.00;93044.34;5091488;28;20052;-70
2022/12/01 05:17:55;;;;;;;23.67;11.45;;;;;;;4.08;100.00;93050.06;5091193;28;20105;-70
2022/12/01 05:23:10;;;;;;;24.27;12.38;;;;;;;4.03;100.00;93050.56;5091010;28;20404;-70
2022/12/01 05:25:37;;;;;;;14.45;6.88;;;;;;;3.92;100.00;93056.88;5090689;28;20067;-70
2022/12/01 05:28:04;;;;;;;11.82;6.50;;;;;;;3.90;100.00;93058.00;5090680;28;20043;-70
2022/12/01 05:30:30;;;;;;;8.00;5.63;;;;;;;3.85;100.00;93054.22;5090859;28;20577;-70
2022/12/01 05:32:57;;;;;;;5.40;2.42;;;;;;;3.74;100.00;93057.97;5090659;28;20094;-70
2022/12/01 05:35:24;;;;;;;3.42;2.30;;;;;;;3.73;100.00;93050.53;5090748;28;20109;-70
2022/12/01 05:37:50;;;;;;;5.63;3.80;;;;;;;3.76;100.00;93041.75;5090804;28;20052;-70
2022/12/01 05:40:19;;;;;;;16.13;8.15;;;;;;;3.78;100.00;93060.16;5090769;28;20113;-70
2022/12/01 05:42:45;;;;;;;15.32;9.95;;;;;;;3.82;100.00;93049.50;5090680;28;20397;-70
2022/12/01 05:45:12;;;;;;;19.80;11.10;;;;;;;3.85;100.00;93051.69;5090840;28;20044;-70
2022/12/01 05:47:39;;;;;;;19.23;9.25;;;;;;;3.88;100.00;93056.44;5090706;28;20058;-70
2022/12/01 05:50:07;;;;;;;11.43;6.35;;;;;;;3.74;100.00;93039.38;5090525;28;20052;-70
2022/12/01 05:52:34;;;;;;;20.55;9.07;;;;;;;3.94;100.00;93059.25;5090377;28;20101;-70
2022/12/01 05:55:01;;;;;;;12.88;6.47;;;;;;;3.86;100.00;93060.91;5090326;28;20518;-70
2022/12/01 05:57:29;;;;;;;11.20;6.03;;;;;;;3.83;100.00;93060.44;5076243;28;20117;-70
2022/12/01 05:59:56;;;;;;;11.23;6.18;;;;;;;3.82;100.00;93057.13;5090087;28;20086;-70
2022/12/01 06:02:25;;;;;;;2.60;1.45;;;;;;;3.69;100.00;93044.19;5090411;28;20055;-70
2022/12/01 06:04:52;;;;;;;3.42;1.60;;;;;;;3.83;100.00;93066.31;5090391;28;20059;-70
2022/12/01 06:07:18;;;;;;;2.22;1.33;;;;;;;3.88;100.00;93068.34;5090410;28;20055;-71
2022/12/01 06:09:45;;;;;;;6.40;4.10;;;;;;;3.84;100.00;93067.91;5090040;28;20059;-71
2022/12/01 06:12:12;;;;;;;4.05;2.60;;;;;;;3.45;100.00;93040.88;5090097;28;20056;-70
2022/12/01 06:14:40;;;;;;;3.00;1.98;;;;;;;3.76;100.00;93070.50;5090336;28;20048;-70
2022/12/01 06:17:07;;;;;;;6.90;2.75;;;;;;;3.48;100.00;93081.19;5090219;28;20052;-70
2022/12/01 06:19:33;;;;;;;5.50;2.30;;;;;;;3.53;100.00;93067.97;5089997;28;20055;-70
2022/12/01 06:22:00;;;;;;;5.38;2.40;;;;;;;3.51;100.00;93059.75;5089970;28;20085;-70
2022/12/01 06:24:27;;;;;;;2.95;1.88;;;;;;;3.56;100.00;93063.34;5089451;28;20048;-70
2022/12/01 06:26:54;;;;;;;4.55;2.20;;;;;;;3.45;100.00;93061.19;5089110;28;20523;-70
2022/12/01 06:29:20;;;;;;;3.88;2.10;;;;;;;3.56;100.00;93075.28;5089942;28;20056;-70
2022/12/01 06:31:48;;;;;;;4.60;2.35;;;;;;;3.44;100.00;93068.06;5089963;28;20094;-70
2022/12/01 06:34:15;;;;;;;4.32;2.42;;;;;;;3.13;100.00;93079.00;5089745;28;20048;-70
2022/12/01 06:36:42;;;;;;;3.38;2.08;;;;;;;3.04;100.00;93067.31;5090027;28;20052;-70
2022/12/01 06:39:09;;;;;;;4.15;2.00;;;;;;;3.21;100.00;93066.25;5089631;28;20128;-70
2022/12/01 06:41:36;;;;;;;2.88;2.00;;;;;;;3.30;100.00;93064.50;5089347;28;20527;-70
2022/12/01 06:44:02;;;;;;;3.35;2.00;;;;;;;3.40;100.00;93063.47;5089625;28;20048;-70
2022/12/01 06:46:29;;;;;;;4.53;2.42;;;;;;;3.60;100.00;93072.22;5089736;28;20048;-71
2022/12/01 06:48:57;;;;;;;6.70;3.65;;;;;;;3.60;100.00;93076.50;5084738;28;20427;-71
2022/12/01 06:51:24;;;;;;;6.47;4.38;;;;;;;3.67;100.00;93090.13;5086573;28;20488;-70
2022/12/01 06:53:53;;;;;;;5.35;3.53;;;;;;;3.69;100.00;93093.25;5089583;28;20036;-70
2022/12/01 06:56:20;;;;;;;6.22;3.30;;;;;;;3.62;100.00;93084.75;5089325;28;20058;-71
2022/12/01 06:58:47;;;;;;;4.72;2.88;;;;;;;3.69;100.00;93089.91;5089677;28;20060;-71
2022/12/01 07:01:14;;;;;;;5.72;4.10;;;;;;;3.51;100.00;93095.31;5089373;28;20524;-71
2022/12/01 07:03:41;;;;;;;2.10;1.15;;;;;;;3.01;100.00;93090.50;5089612;28;20492;-70
2022/12/01 07:06:09;;;;;;;3.97;2.42;;;;;;;2.99;100.00;93093.19;5089591;28;20044;-70
2022/12/01 07:08:36;;;;;;;3.03;1.63;;;;;;;2.96;100.00;93085.91;5088434;28;20056;-70
2022/12/01 07:11:04;;;;;;;3.22;1.60;;;;;;;2.61;100.00;93091.28;5089327;28;20036;-70
2022/12/01 07:13:31;;;;;;;2.00;1.50;;;;;;;2.72;100.00;93082.53;5089498;28;20044;-70
2022/12/01 07:15:58;;;;;;;3.80;2.03;;;;;;;2.88;100.00;93093.56;5088952;28;20051;-70
2022/12/01 07:18:25;;;;;;;4.95;3.53;;;;;;;2.94;100.00;93091.16;5089269;28;20052;-70
2022/12/01 07:20:51;;;;;;;2.97;1.98;;;;;;;2.92;100.00;93099.91;5089329;28;20044;-70
2022/12/01 07:23:20;;;;;;;3.47;2.35;;;;;;;2.86;100.00;93088.66;5088922;28;20056;-70
2022/12/01 07:25:46;;;;;;;5.32;2.97;;;;;;;3.04;100.00;93088.41;5089372;28;20443;-70
2022/12/01 07:28:13;;;;;;;11.00;8.95;;;;;;;3.10;100.00;93099.63;5089301;28;20056;-70
2022/12/01 07:30:40;;;;;;;7.20;6.00;;;;;;;3.27;100.00;93081.78;5089421;28;20500;-70
2022/12/01 07:33:07;;;;;;;4.18;3.20;;;;;;;3.26;100.00;93077.66;5089097;28;20044;-70
2022/12/01 07:35:33;;;;;;;17.88;11.55;;;;;;;3.37;100.00;93086.66;5088908;28;20476;-70
2022/12/01 07:51:22;;;;;;;4.40;2.83;;;;;;;4.00;100.00;93087.31;5073257;27;20371;-68
2022/12/01 07:53:50;;;;;;;7.28;4.07;;;;;;;3.81;100.00;93116.53;5066250;28;20095;-68
2022/12/01 07:56:18;;;;;;;5.18;2.97;;;;;;;3.48;100.00;93102.28;5066397;28;20052;-68
2022/12/01 07:58:44;;;;;;;3.47;2.45;;;;;;;3.36;100.00;93105.38;5066198;28;20497;-67
2022/12/01 08:01:13;;;;;;;3.80;2.83;;;;;;;3.25;100.00;93104.00;5066512;28;20149;-67
2022/12/01 08:03:41;;;;;;;4.25;3.00;;;;;;;3.20;100.00;93101.97;5066467;28;20061;-67
2022/12/01 08:06:08;;;;;;;3.47;2.60;;;;;;;3.20;100.00;93109.59;5066368;28;20057;-67
2022/12/01 08:08:39;;;;;;;5.35;3.53;;;;;;;3.20;100.00;93102.75;5066116;28;20137;-68
2022/12/01 08:11:09;;;;;;;13.55;5.57;;;;;;;3.41;100.00;93105.66;5066119;28;20494;-68
2022/12/01 08:13:36;;;;;;;9.40;6.65;;;;;;;3.57;100.00;93097.94;5065676;28;20179;-68
2022/12/01 08:16:04;;;;;;;9.10;7.22;;;;;;;3.72;100.00;93107.38;5065680;28;20049;-67
2022/12/01 08:18:31;;;;;;;4.70;3.30;;;;;;;3.75;100.00;93107.03;5065568;28;20132;-67
2022/12/01 08:20:57;;;;;;;5.05;4.07;;;;;;;3.59;100.00;93098.56;5065790;28;20049;-67
2022/12/01 08:23:24;;;;;;;7.00;4.35;;;;;;;3.60;100.00;93089.19;5066010;28;20055;-67
2022/12/01 08:25:53;;;;;;;6.85;4.13;;;;;;;3.79;100.00;93089.72;5065794;28;20049;-67
2022/12/01 08:28:19;;;;;;;15.25;7.75;;;;;;;3.90;100.00;93094.38;5065827;28;20387;-67
2022/12/01 08:30:46;;;;;;;20.98;13.10;;;;;;;3.99;100.00;93095.88;5065629;28;20382;-68
2022/12/01 08:33:13;;;;;;;26.77;19.33;;;;;;;4.04;100.00;93099.66;5065773;28;20052;-68
2022/12/01 08:35:40;;;;;;;31.58;18.80;;;;;;;4.06;100.00;93105.34;5065851;28;20048;-68
2022/12/01 08:38:07;;;;;;;10.13;5.85;;;;;;;4.06;100.00;93106.16;5065630;28;20114;-68
2022/12/01 08:40:33;;;;;;;11.50;7.20;;;;;;;3.81;100.00;93103.03;5065301;28;20049;-68
2022/12/01 08:43:02;;;;;;;6.38;3.30;;;;;;;3.84;100.00;93110.31;5065891;28;20390;-67
2022/12/01 08:45:28;;;;;;;8.68;6.03;;;;;;;3.99;100.00;93105.28;5065445;28;20485;-68
2022/12/01 08:47:57;;;;;;;15.02;10.50;;;;;;;4.01;100.00;93103.34;5064633;28;20458;-68
2022/12/01 08:50:24;;;;;;;8.68;6.32;;;;;;;4.06;100.00;93103.63;5061901;28;20132;-68
2022/12/01 08:52:51;;;;;;;18.63;10.02;;;;;;;4.13;100.00;93107.03;5052401;28;20079;-68
2022/12/01 08:55:18;;;;;;;11.70;6.60;;;;;;;4.06;100.00;93107.91;5052388;28;20044;-68
2022/12/01 08:57:45;;;;;;;8.75;5.43;;;;;;;3.79;100.00;93104.97;5052354;28;20052;-67
2022/12/01 09:00:14;;;;;;;2.58;1.80;;;;;;;3.48;100.00;93109.13;5051732;28;20102;-68
2022/12/01 09:02:41;;;;;;;3.78;2.55;;;;;;;3.51;100.00;93097.84;5051579;28;20117;-68
2022/12/01 09:05:08;;;;;;;3.55;2.00;;;;;;;3.44;100.00;93097.72;5052361;28;20053;-68
2022/12/01 09:07:35;;;;;;;4.78;2.95;;;;;;;3.38;100.00;93101.72;5051779;28;20627;-68
2022/12/01 09:10:02;;;;;;;5.50;3.33;;;;;;;3.54;100.00;93105.09;5051632;28;20049;-68
2022/12/01 09:12:29;;;;;;;7.40;3.80;;;;;;;3.71;100.00;93096.41;5052035;28;20098;-67
2022/12/01 09:14:56;;;;;;;4.80;3.13;;;;;;;3.84;100.00;93095.84;5051655;28;20092;-68
2022/12/01 09:17:24;;;;;;;5.75;3.63;;;;;;;3.88;100.00;93099.63;5051917;28;20048;-67
2022/12/01 09:19:51;;;;;;;10.77;6.15;;;;;;;3.94;100.00;93095.59;5051404;28;20106;-67
2022/12/01 09:22:17;;;;;;;19.95;12.73;;;;;;;4.08;100.00;93100.91;5051409;28;20103;-67
2022/12/01 09:24:44;;;;;;;20.38;12.07;;;;;;;4.11;100.00;93103.09;5051900;28;20103;-67
2022/12/01 09:27:12;;;;;;;16.20;7.72;;;;;;;4.20;100.00;93099.53;5051576;28;20572;-67
2022/12/01 09:29:38;;;;;;;8.27;5.30;;;;;;;4.31;100.00;93097.53;5051449;28;20041;-67
2022/12/01 09:32:05;;;;;;;20.38;12.95;;;;;;;4.38;100.00;93093.31;5052382;28;20436;-67
2022/12/01 09:34:33;;;;;;;18.77;12.02;;;;;;;4.43;100.00;93088.50;5051397;28;20131;-67
2022/12/01 09:37:00;;;;;;;28.60;18.52;;;;;;;4.55;100.00;93088.88;5051597;28;20468;-67
2022/12/01 09:39:28;;;;;;;50.47;26.65;;;;;;;4.63;100.00;93082.91;5051304;28;20045;-67
2022/12/01 09:41:57;;;;;;;77.30;43.30;;;;;;;4.69;100.00;93097.47;5051686;28;20476;-67
2022/12/01 09:44:34;;;;;;;22.58;14.23;;;;;;;4.67;100.00;93079.00;5051468;28;20053;-68
2022/12/01 09:47:08;;;;;;;18.38;11.40;;;;;;;4.68;100.00;93080.63;5051224;28;20497;-68
2022/12/01 09:49:46;;;;;;;15.07;9.45;;;;;;;4.65;100.00;93089.41;5051022;28;20061;-68
2022/12/01 09:52:16;;;;;;;42.70;25.45;;;;;;;4.61;100.00;93080.53;5051165;28;20049;-68
2022/12/01 09:54:43;;;;;;;34.60;21.98;;;;;;;4.68;100.00;93081.38;5050904;28;20053;-68
2022/12/01 09:57:15;;;;;;;26.08;15.50;;;;;;;4.70;100.00;93082.97;5051363;28;20395;-68
2022/12/01 09:59:43;;;;;;;13.75;8.07;;;;;;;4.55;100.00;93071.81;5050734;28;20549;-69
2022/12/01 10:02:25;;;;;;;17.88;10.80;;;;;;;4.65;100.00;93075.88;5050109;28;20045;-68
2022/12/01 10:04:55;;;;;;;92.35;49.45;;;;;;;4.71;100.00;93072.63;5046847;28;20474;-68
2022/12/01 10:07:28;;;;;;;228.60;98.28;;;;;;;4.71;100.00;93069.31;5048599;28;20075;-68
2022/12/01 10:09:57;;;;;;;128.82;54.03;;;;;;;4.70;100.00;93073.59;5050658;28;21195;-68
2022/12/01 10:12:26;;;;;;;97.43;47.55;;;;;;;4.76;100.00;93082.25;5050951;28;20057;-70
2022/12/01 10:14:58;;;;;;;56.17;35.10;;;;;;;4.78;100.00;93080.34;5050848;28;20395;-70
2022/12/01 10:17:34;;;;;;;33.97;19.40;;;;;;;4.75;100.00;93085.78;5049843;28;20048;-70
2022/12/01 10:20:08;;;;;;;46.95;31.35;;;;;;;4.74;100.00;93076.56;5050605;28;20134;-70
2022/12/01 10:23:12;;;;;;;25.20;15.55;;;;;;;4.61;100.00;93072.09;5050278;28;20094;-70
2022/12/01 10:25:49;;;;;;;20.42;12.20;;;;;;;4.61;100.00;93077.19;4999560;28;20045;-70
2022/12/01 10:28:32;;;;;;;28.38;17.38;;;;;;;4.54;100.00;93069.47;5050540;28;20167;-71
2022/12/01 10:31:15;;;;;;;20.00;13.18;;;;;;;4.62;100.00;93086.38;5050052;28;20045;-70
2022/12/01 10:33:48;;;;;;;15.43;10.00;;;;;;;4.50;100.00;93063.16;5050515;28;20453;-70
2022/12/01 10:36:16;;;;;;;6.75;4.25;;;;;;;4.25;100.00;93073.56;5050376;28;20053;-70
2022/12/01 10:38:43;;;;;;;4.97;3.10;;;;;;;3.90;100.00;93079.13;5050357;28;20107;-71
2022/12/01 10:41:13;;;;;;;7.20;4.93;;;;;;;3.92;100.00;93078.94;5050089;28;20053;-70
2022/12/01 10:43:44;;;;;;;8.98;5.78;;;;;;;3.85;100.00;93063.63;5050362;28;20053;-70
2022/12/01 10:46:21;;;;;;;7.68;5.45;;;;;;;3.69;100.00;93065.31;5050149;28;20053;-71
2022/12/01 10:48:56;;;;;;;7.50;4.15;;;;;;;3.36;100.00;93054.59;5049842;28;20083;-70
2022/12/01 10:51:26;;;;;;;6.50;4.13;;;;;;;3.16;100.00;93065.97;5050011;28;20052;-70
2022/12/01 10:53:59;;;;;;;7.43;4.90;;;;;;;2.83;100.00;93058.56;5049831;28;20110;-70
2022/12/01 10:56:26;;;;;;;5.78;4.40;;;;;;;3.06;100.00;93048.41;5050067;28;20151;-70
2022/12/01 10:58:55;;;;;;;14.95;8.55;;;;;;;3.32;100.00;93049.88;5049419;28;20041;-70
2022/12/01 11:01:24;;;;;;;8.98;5.85;;;;;;;3.40;100.00;93048.22;5049453;28;20544;-70
2022/12/01 11:03:54;;;;;;;14.68;7.78;;;;;;;3.67;100.00;93054.56;5049691;28;20106;-70
2022/12/01 11:06:27;;;;;;;19.50;12.80;;;;;;;3.69;100.00;93062.78;5049644;28;20186;-70
2022/12/01 11:08:57;;;;;;;16.25;10.23;;;;;;;3.78;100.00;93068.59;5049604;28;20053;-70
2022/12/01 11:11:28;;;;;;;3.90;2.70;;;;;;;3.37;100.00;93072.19;5049965;28;20045;-70
2022/12/01 11:13:58;;;;;;;6.40;4.78;;;;;;;3.45;100.00;93062.00;5049177;28;20052;-70
2022/12/01 11:16:37;;;;;;;9.80;5.45;;;;;;;3.63;100.00;93068.53;5049958;28;20175;-70
2022/12/01 11:21:57;;;;;;;43.95;22.75;;;;;;;3.85;100.00;93058.53;5049007;28;20748;-70
2022/12/01 11:24:41;;;;;;;21.40;10.32;;;;;;;3.74;100.00;93032.56;5049833;28;20102;-70
2022/12/01 11:27:16;;;;;;;10.25;6.95;;;;;;;4.08;100.00;93062.78;5049635;28;20049;-70
2022/12/01 11:29:43;;;;;;;29.35;15.73;;;;;;;3.96;100.00;93057.31;5049670;28;20049;-70
2022/12/01 11:32:18;;;;;;;30.58;15.13;;;;;;;4.03;100.00;93060.72;5049636;28;20048;-70
2022/12/01 11:34:50;;;;;;;8.88;5.35;;;;;;;3.94;100.00;93067.66;5049294;28;20056;-70
2022/12/01 11:37:22;;;;;;;9.27;5.88;;;;;;;3.94;100.00;93069.41;5049401;28;20460;-70
2022/12/01 11:39:50;;;;;;;7.28;3.78;;;;;;;3.93;100.00;93066.06;5049502;28;20103;-70
2022/12/01 11:42:23;;;;;;;7.72;5.25;;;;;;;3.83;100.00;93057.91;5049326;28;20102;-70
2022/12/01 11:44:52;;;;;;;6.10;3.97;;;;;;;3.69;100.00;93072.13;5049384;28;20365;-70
2022/12/01 11:47:21;;;;;;;5.05;3.67;;;;;;;3.25;100.00;93060.84;5049400;28;20102;-70
2022/12/01 11:49:52;;;;;;;9.75;6.38;;;;;;;3.27;100.00;93043.69;5049183;28;20536;-70
2022/12/01 11:52:27;;;;;;;12.43;7.22;;;;;;;3.25;100.00;93045.63;5049063;28;20045;-70
2022/12/01 11:54:59;;;;;;;8.40;5.20;;;;;;;3.21;100.00;93050.25;5048534;28;20076;-70
2022/12/01 11:57:28;;;;;;;7.55;5.65;;;;;;;3.19;100.00;93035.19;5039362;28;20131;-70
2022/12/01 11:59:55;;;;;;;13.40;7.60;;;;;;;3.44;100.00;93040.13;5044253;28;20168;-70
2022/12/01 12:02:30;;;;;;;13.82;8.73;;;;;;;3.52;100.00;93049.41;5048437;28;20122;-71